Terminal Aerodrome Forecast
Issued by NWS Charleston, SC

Home | Current Version | Previous Version | Text Only | Print | Product List | Glossary On
Versions: 1 2 3 4 5 6 7 8 9 10 11 12 13 14
000
FTUS42 KCHS 230500
TAFSAV
TAF
KSAV 230535Z 2306/2406 04009KT P6SM VCSH SCT015 OVC050
      TEMPO 2306/2310 6SM -SHRA SCT005 BKN035
     FM231200 04010KT P6SM -SHRA SCT020 BKN040
     FM231500 05013G19KT P6SM VCSH OVC035
     FM240000 05013G19KT P6SM VCSH OVC025=

USA.gov is the U.S. government's official web portal to all federal, state and local government web resources and services.